sensor_id;sensor_type;location;lat;lon;timestamp;P1;durP1;ratioP1;P2;durP2;ratioP2
22007;SDS011;11168;56.976;24.168;2022-09-03T00:00:20;12.45;;;7.43;;
22007;SDS011;11168;56.976;24.168;2022-09-03T00:05:40;11.15;;;6.88;;
22007;SDS011;11168;56.976;24.168;2022-09-03T00:10:41;11.05;;;7.40;;
22007;SDS011;11168;56.976;24.168;2022-09-03T00:13:11;11.18;;;6.68;;
22007;SDS011;11168;56.976;24.168;2022-09-03T00:15:40;11.67;;;5.77;;
22007;SDS011;11168;56.976;24.168;2022-09-03T00:18:08;10.18;;;6.20;;
22007;SDS011;11168;56.976;24.168;2022-09-03T00:20:38;8.77;;;5.60;;
22007;SDS011;11168;56.976;24.168;2022-09-03T00:23:07;7.32;;;5.95;;
22007;SDS011;11168;56.976;24.168;2022-09-03T00:25:39;8.45;;;5.60;;
22007;SDS011;11168;56.976;24.168;2022-09-03T00:28:16;9.52;;;5.20;;
22007;SDS011;11168;56.976;24.168;2022-09-03T00:30:45;8.10;;;5.35;;
22007;SDS011;11168;56.976;24.168;2022-09-03T00:33:23;7.65;;;5.20;;
22007;SDS011;11168;56.976;24.168;2022-09-03T00:36:35;7.93;;;4.93;;
22007;SDS011;11168;56.976;24.168;2022-09-03T00:38:42;11.07;;;5.37;;
22007;SDS011;11168;56.976;24.168;2022-09-03T00:54:26;7.32;;;4.50;;
22007;SDS011;11168;56.976;24.168;2022-09-03T00:59:43;7.90;;;4.45;;
22007;SDS011;11168;56.976;24.168;2022-09-03T01:04:50;7.22;;;4.15;;
22007;SDS011;11168;56.976;24.168;2022-09-03T01:15:25;6.68;;;4.78;;
22007;SDS011;11168;56.976;24.168;2022-09-03T01:26:22;7.45;;;4.68;;
22007;SDS011;11168;56.976;24.168;2022-09-03T01:29:18;7.07;;;4.72;;
22007;SDS011;11168;56.976;24.168;2022-09-03T01:42:22;8.02;;;5.13;;
22007;SDS011;11168;56.976;24.168;2022-09-03T01:47:40;7.13;;;4.60;;
22007;SDS011;11168;56.976;24.168;2022-09-03T01:58:08;10.10;;;5.30;;
22007;SDS011;11168;56.976;24.168;2022-09-03T02:00:37;5.60;;;4.32;;
22007;SDS011;11168;56.976;24.168;2022-09-03T02:03:07;8.73;;;4.68;;
22007;SDS011;11168;56.976;24.168;2022-09-03T02:05:35;8.32;;;4.00;;
22007;SDS011;11168;56.976;24.168;2022-09-03T02:08:05;5.68;;;4.50;;
22007;SDS011;11168;56.976;24.168;2022-09-03T02:10:40;9.00;;;5.43;;
22007;SDS011;11168;56.976;24.168;2022-09-03T02:13:10;9.57;;;5.20;;
22007;SDS011;11168;56.976;24.168;2022-09-03T02:15:40;6.32;;;4.68;;
22007;SDS011;11168;56.976;24.168;2022-09-03T02:18:15;7.80;;;4.82;;
22007;SDS011;11168;56.976;24.168;2022-09-03T02:20:43;8.88;;;5.15;;
22007;SDS011;11168;56.976;24.168;2022-09-03T02:23:13;8.50;;;5.57;;
22007;SDS011;11168;56.976;24.168;2022-09-03T02:25:43;11.48;;;5.50;;
22007;SDS011;11168;56.976;24.168;2022-09-03T02:28:13;8.57;;;5.65;;
22007;SDS011;11168;56.976;24.168;2022-09-03T02:30:43;8.80;;;5.32;;
22007;SDS011;11168;56.976;24.168;2022-09-03T02:33:10;10.07;;;5.57;;
22007;SDS011;11168;56.976;24.168;2022-09-03T02:35:39;7.28;;;5.55;;
22007;SDS011;11168;56.976;24.168;2022-09-03T02:38:15;7.50;;;5.80;;
22007;SDS011;11168;56.976;24.168;2022-09-03T02:40:43;8.63;;;5.82;;
22007;SDS011;11168;56.976;24.168;2022-09-03T02:46:11;8.35;;;5.45;;
22007;SDS011;11168;56.976;24.168;2022-09-03T02:48:40;7.43;;;5.80;;
22007;SDS011;11168;56.976;24.168;2022-09-03T02:51:07;7.63;;;5.40;;
22007;SDS011;11168;56.976;24.168;2022-09-03T02:53:39;8.48;;;6.00;;
22007;SDS011;11168;56.976;24.168;2022-09-03T02:56:07;8.55;;;5.38;;
22007;SDS011;11168;56.976;24.168;2022-09-03T02:58:34;8.93;;;5.68;;
22007;SDS011;11168;56.976;24.168;2022-09-03T03:01:02;8.25;;;5.57;;
22007;SDS011;11168;56.976;24.168;2022-09-03T03:03:29;8.27;;;5.65;;
22007;SDS011;11168;56.976;24.168;2022-09-03T03:05:57;7.55;;;5.60;;
22007;SDS011;11168;56.976;24.168;2022-09-03T03:08:26;7.47;;;5.55;;
22007;SDS011;11168;56.976;24.168;2022-09-03T03:10:56;8.80;;;5.35;;
22007;SDS011;11168;56.976;24.168;2022-09-03T03:13:26;7.38;;;5.18;;
22007;SDS011;11168;56.976;24.168;2022-09-03T03:15:57;6.70;;;4.82;;
22007;SDS011;11168;56.976;24.168;2022-09-03T03:18:25;7.10;;;4.38;;
22007;SDS011;11168;56.976;24.168;2022-09-03T03:20:53;6.43;;;3.83;;
22007;SDS011;11168;56.976;24.168;2022-09-03T03:23:21;5.68;;;3.28;;
22007;SDS011;11168;56.976;24.168;2022-09-03T03:25:48;4.72;;;3.35;;
22007;SDS011;11168;56.976;24.168;2022-09-03T03:28:15;4.68;;;3.33;;
22007;SDS011;11168;56.976;24.168;2022-09-03T03:30:45;5.70;;;3.70;;
22007;SDS011;11168;56.976;24.168;2022-09-03T03:33:14;8.82;;;5.03;;
22007;SDS011;11168;56.976;24.168;2022-09-03T03:35:41;7.18;;;4.88;;
22007;SDS011;11168;56.976;24.168;2022-09-03T03:38:09;6.88;;;5.10;;
22007;SDS011;11168;56.976;24.168;2022-09-03T03:40:39;7.75;;;4.78;;
22007;SDS011;11168;56.976;24.168;2022-09-03T03:43:06;7.60;;;5.17;;
22007;SDS011;11168;56.976;24.168;2022-09-03T03:45:34;7.63;;;5.70;;
22007;SDS011;11168;56.976;24.168;2022-09-03T03:48:01;11.00;;;5.63;;
22007;SDS011;11168;56.976;24.168;2022-09-03T03:50:29;11.25;;;5.72;;
22007;SDS011;11168;56.976;24.168;2022-09-03T03:52:58;6.18;;;4.78;;
22007;SDS011;11168;56.976;24.168;2022-09-03T03:55:27;7.10;;;4.47;;
22007;SDS011;11168;56.976;24.168;2022-09-03T03:58:00;6.65;;;4.40;;
22007;SDS011;11168;56.976;24.168;2022-09-03T04:00:27;8.48;;;5.18;;
22007;SDS011;11168;56.976;24.168;2022-09-03T04:02:54;8.25;;;5.80;;
22007;SDS011;11168;56.976;24.168;2022-09-03T04:05:22;8.38;;;5.63;;
22007;SDS011;11168;56.976;24.168;2022-09-03T04:07:52;7.47;;;5.20;;
22007;SDS011;11168;56.976;24.168;2022-09-03T04:10:19;6.30;;;4.85;;
22007;SDS011;11168;56.976;24.168;2022-09-03T04:12:46;6.50;;;5.20;;
22007;SDS011;11168;56.976;24.168;2022-09-03T04:15:13;10.32;;;5.18;;
22007;SDS011;11168;56.976;24.168;2022-09-03T04:17:41;9.07;;;5.55;;
22007;SDS011;11168;56.976;24.168;2022-09-03T04:20:09;8.10;;;4.93;;
22007;SDS011;11168;56.976;24.168;2022-09-03T04:22:36;11.07;;;4.60;;
22007;SDS011;11168;56.976;24.168;2022-09-03T04:25:04;8.45;;;4.80;;
22007;SDS011;11168;56.976;24.168;2022-09-03T04:27:31;10.98;;;5.30;;
22007;SDS011;11168;56.976;24.168;2022-09-03T04:29:59;6.38;;;4.97;;
22007;SDS011;11168;56.976;24.168;2022-09-03T04:32:29;6.93;;;4.82;;
22007;SDS011;11168;56.976;24.168;2022-09-03T04:35:18;8.10;;;4.72;;
22007;SDS011;11168;56.976;24.168;2022-09-03T04:37:46;5.88;;;3.85;;
22007;SDS011;11168;56.976;24.168;2022-09-03T04:40:13;5.75;;;4.28;;
22007;SDS011;11168;56.976;24.168;2022-09-03T04:42:41;8.38;;;4.18;;
22007;SDS011;11168;56.976;24.168;2022-09-03T04:45:08;5.40;;;3.28;;
22007;SDS011;11168;56.976;24.168;2022-09-03T04:47:37;4.40;;;3.47;;
22007;SDS011;11168;56.976;24.168;2022-09-03T04:50:04;6.18;;;4.15;;
22007;SDS011;11168;56.976;24.168;2022-09-03T04:52:32;7.70;;;3.20;;
22007;SDS011;11168;56.976;24.168;2022-09-03T04:54:59;6.75;;;2.38;;
22007;SDS011;11168;56.976;24.168;2022-09-03T04:57:27;3.00;;;2.70;;
22007;SDS011;11168;56.976;24.168;2022-09-03T05:00:00;4.85;;;3.05;;
22007;SDS011;11168;56.976;24.168;2022-09-03T05:02:28;5.68;;;2.97;;
22007;SDS011;11168;56.976;24.168;2022-09-03T05:04:55;4.00;;;3.10;;
22007;SDS011;11168;56.976;24.168;2022-09-03T05:07:22;4.65;;;2.95;;
22007;SDS011;11168;56.976;24.168;2022-09-03T05:09:50;6.78;;;2.50;;
22007;SDS011;11168;56.976;24.168;2022-09-03T05:12:17;4.70;;;2.53;;
22007;SDS011;11168;56.976;24.168;2022-09-03T05:14:46;5.68;;;2.92;;
22007;SDS011;11168;56.976;24.168;2022-09-03T05:17:13;2.60;;;2.00;;
22007;SDS011;11168;56.976;24.168;2022-09-03T05:19:40;2.88;;;2.15;;
22007;SDS011;11168;56.976;24.168;2022-09-03T05:22:08;3.50;;;2.05;;
22007;SDS011;11168;56.976;24.168;2022-09-03T05:24:35;4.93;;;2.10;;
22007;SDS011;11168;56.976;24.168;2022-09-03T05:27:02;5.55;;;1.85;;
22007;SDS011;11168;56.976;24.168;2022-09-03T05:29:30;3.38;;;1.95;;
22007;SDS011;11168;56.976;24.168;2022-09-03T05:31:57;5.97;;;1.90;;
22007;SDS011;11168;56.976;24.168;2022-09-03T05:34:25;2.28;;;1.63;;
22007;SDS011;11168;56.976;24.168;2022-09-03T05:36:53;1.95;;;1.73;;
22007;SDS011;11168;56.976;24.168;2022-09-03T05:39:21;2.03;;;1.55;;
22007;SDS011;11168;56.976;24.168;2022-09-03T05:41:49;2.90;;;1.48;;
22007;SDS011;11168;56.976;24.168;2022-09-03T05:44:18;2.33;;;1.60;;
22007;SDS011;11168;56.976;24.168;2022-09-03T05:46:49;2.78;;;1.52;;
22007;SDS011;11168;56.976;24.168;2022-09-03T05:49:16;1.23;;;1.02;;
22007;SDS011;11168;56.976;24.168;2022-09-03T05:51:44;1.23;;;1.02;;
22007;SDS011;11168;56.976;24.168;2022-09-03T05:54:11;1.52;;;1.33;;
22007;SDS011;11168;56.976;24.168;2022-09-03T05:56:39;1.85;;;1.50;;
22007;SDS011;11168;56.976;24.168;2022-09-03T05:59:08;1.65;;;1.20;;
22007;SDS011;11168;56.976;24.168;2022-09-03T06:01:39;2.35;;;1.35;;
22007;SDS011;11168;56.976;24.168;2022-09-03T06:04:16;2.47;;;1.02;;
22007;SDS011;11168;56.976;24.168;2022-09-03T06:06:44;2.40;;;1.00;;
22007;SDS011;11168;56.976;24.168;2022-09-03T06:09:16;1.52;;;0.90;;
22007;SDS011;11168;56.976;24.168;2022-09-03T06:11:44;1.20;;;1.10;;
22007;SDS011;11168;56.976;24.168;2022-09-03T06:14:12;1.15;;;0.90;;
22007;SDS011;11168;56.976;24.168;2022-09-03T06:16:41;2.85;;;1.00;;
22007;SDS011;11168;56.976;24.168;2022-09-03T06:19:09;1.25;;;1.08;;
22007;SDS011;11168;56.976;24.168;2022-09-03T06:21:37;0.88;;;0.80;;
22007;SDS011;11168;56.976;24.168;2022-09-03T06:24:12;2.05;;;1.10;;
22007;SDS011;11168;56.976;24.168;2022-09-03T06:26:40;3.75;;;1.27;;
22007;SDS011;11168;56.976;24.168;2022-09-03T06:29:08;2.17;;;1.38;;
22007;SDS011;11168;56.976;24.168;2022-09-03T06:31:35;0.75;;;0.75;;
22007;SDS011;11168;56.976;24.168;2022-09-03T06:34:03;1.75;;;0.80;;
22007;SDS011;11168;56.976;24.168;2022-09-03T06:36:31;1.55;;;0.82;;
22007;SDS011;11168;56.976;24.168;2022-09-03T06:38:58;0.80;;;0.70;;
22007;SDS011;11168;56.976;24.168;2022-09-03T06:41:28;1.55;;;0.60;;
22007;SDS011;11168;56.976;24.168;2022-09-03T06:44:02;1.55;;;0.63;;
22007;SDS011;11168;56.976;24.168;2022-09-03T06:46:33;3.70;;;1.20;;
22007;SDS011;11168;56.976;24.168;2022-09-03T06:49:04;5.57;;;1.40;;
22007;SDS011;11168;56.976;24.168;2022-09-03T06:51:31;2.17;;;0.68;;
22007;SDS011;11168;56.976;24.168;2022-09-03T06:54:00;1.20;;;0.80;;
22007;SDS011;11168;56.976;24.168;2022-09-03T06:56:27;0.73;;;0.60;;
22007;SDS011;11168;56.976;24.168;2022-09-03T06:58:56;2.17;;;0.80;;
22007;SDS011;11168;56.976;24.168;2022-09-03T07:01:27;1.08;;;0.68;;
22007;SDS011;11168;56.976;24.168;2022-09-03T07:04:01;4.97;;;0.95;;
22007;SDS011;11168;56.976;24.168;2022-09-03T07:06:29;3.45;;;1.15;;
22007;SDS011;11168;56.976;24.168;2022-09-03T07:08:57;1.45;;;1.15;;
22007;SDS011;11168;56.976;24.168;2022-09-03T07:11:26;3.95;;;1.58;;
22007;SDS011;11168;56.976;24.168;2022-09-03T07:13:54;3.13;;;1.40;;
22007;SDS011;11168;56.976;24.168;2022-09-03T07:16:29;0.50;;;0.45;;
22007;SDS011;11168;56.976;24.168;2022-09-03T07:18:57;1.23;;;0.70;;
22007;SDS011;11168;56.976;24.168;2022-09-03T07:21:27;1.08;;;0.73;;
22007;SDS011;11168;56.976;24.168;2022-09-03T07:23:55;0.40;;;0.40;;
22007;SDS011;11168;56.976;24.168;2022-09-03T07:26:24;1.98;;;0.45;;
22007;SDS011;11168;56.976;24.168;2022-09-03T07:28:51;0.95;;;0.50;;
22007;SDS011;11168;56.976;24.168;2022-09-03T07:31:25;2.13;;;0.60;;
22007;SDS011;11168;56.976;24.168;2022-09-03T07:33:54;2.78;;;0.90;;
22007;SDS011;11168;56.976;24.168;2022-09-03T07:36:22;1.75;;;0.70;;
22007;SDS011;11168;56.976;24.168;2022-09-03T07:38:53;2.30;;;0.80;;
22007;SDS011;11168;56.976;24.168;2022-09-03T07:41:20;2.28;;;0.65;;
22007;SDS011;11168;56.976;24.168;2022-09-03T07:43:54;0.90;;;0.60;;
22007;SDS011;11168;56.976;24.168;2022-09-03T07:46:23;2.08;;;0.70;;
22007;SDS011;11168;56.976;24.168;2022-09-03T07:48:53;1.88;;;0.80;;
22007;SDS011;11168;56.976;24.168;2022-09-03T07:51:21;1.27;;;0.80;;
22007;SDS011;11168;56.976;24.168;2022-09-03T07:53:53;1.60;;;0.70;;
22007;SDS011;11168;56.976;24.168;2022-09-03T07:56:21;1.55;;;0.32;;
22007;SDS011;11168;56.976;24.168;2022-09-03T07:58:49;0.60;;;0.43;;
22007;SDS011;11168;56.976;24.168;2022-09-03T08:01:17;1.95;;;0.47;;
22007;SDS011;11168;56.976;24.168;2022-09-03T08:03:45;2.03;;;1.20;;
22007;SDS011;11168;56.976;24.168;2022-09-03T08:06:14;2.78;;;0.90;;
22007;SDS011;11168;56.976;24.168;2022-09-03T08:08:41;2.17;;;1.35;;
22007;SDS011;11168;56.976;24.168;2022-09-03T08:11:17;3.42;;;0.60;;
22007;SDS011;11168;56.976;24.168;2022-09-03T08:13:46;0.88;;;0.60;;
22007;SDS011;11168;56.976;24.168;2022-09-03T08:16:15;0.65;;;0.55;;
22007;SDS011;11168;56.976;24.168;2022-09-03T08:18:43;1.30;;;0.70;;
22007;SDS011;11168;56.976;24.168;2022-09-03T08:21:13;3.78;;;1.27;;
22007;SDS011;11168;56.976;24.168;2022-09-03T08:23:43;3.95;;;1.55;;
22007;SDS011;11168;56.976;24.168;2022-09-03T08:26:11;0.80;;;0.80;;
22007;SDS011;11168;56.976;24.168;2022-09-03T08:28:40;3.85;;;2.72;;
22007;SDS011;11168;56.976;24.168;2022-09-03T08:31:10;0.60;;;0.50;;
22007;SDS011;11168;56.976;24.168;2022-09-03T08:33:38;0.77;;;0.60;;
22007;SDS011;11168;56.976;24.168;2022-09-03T08:36:11;1.50;;;0.67;;
22007;SDS011;11168;56.976;24.168;2022-09-03T08:38:39;2.67;;;0.60;;
22007;SDS011;11168;56.976;24.168;2022-09-03T08:43:39;3.78;;;1.00;;
22007;SDS011;11168;56.976;24.168;2022-09-03T08:46:13;1.45;;;1.13;;
22007;SDS011;11168;56.976;24.168;2022-09-03T08:48:41;1.00;;;0.40;;
22007;SDS011;11168;56.976;24.168;2022-09-03T08:51:09;1.38;;;0.70;;
22007;SDS011;11168;56.976;24.168;2022-09-03T08:53:47;1.40;;;1.00;;
22007;SDS011;11168;56.976;24.168;2022-09-03T08:56:24;3.88;;;0.90;;
22007;SDS011;11168;56.976;24.168;2022-09-03T08:58:52;1.05;;;0.73;;
22007;SDS011;11168;56.976;24.168;2022-09-03T09:15:03;1.35;;;0.55;;
22007;SDS011;11168;56.976;24.168;2022-09-03T09:22:56;1.40;;;0.40;;
22007;SDS011;11168;56.976;24.168;2022-09-03T09:25:25;1.75;;;0.40;;
22007;SDS011;11168;56.976;24.168;2022-09-03T09:27:57;1.10;;;0.60;;
22007;SDS011;11168;56.976;24.168;2022-09-03T09:30:27;1.02;;;0.52;;
22007;SDS011;11168;56.976;24.168;2022-09-03T09:32:55;0.88;;;0.47;;
22007;SDS011;11168;56.976;24.168;2022-09-03T09:35:22;0.90;;;0.90;;
22007;SDS011;11168;56.976;24.168;2022-09-03T09:37:51;1.70;;;0.65;;
22007;SDS011;11168;56.976;24.168;2022-09-03T09:40:26;1.33;;;0.90;;
22007;SDS011;11168;56.976;24.168;2022-09-03T09:43:14;1.27;;;0.80;;
22007;SDS011;11168;56.976;24.168;2022-09-03T09:45:42;1.52;;;0.70;;
22007;SDS011;11168;56.976;24.168;2022-09-03T09:48:31;0.68;;;0.68;;
22007;SDS011;11168;56.976;24.168;2022-09-03T09:51:06;3.70;;;1.10;;
22007;SDS011;11168;56.976;24.168;2022-09-03T09:53:35;2.03;;;1.05;;
22007;SDS011;11168;56.976;24.168;2022-09-03T09:56:02;3.65;;;1.38;;
22007;SDS011;11168;56.976;24.168;2022-09-03T09:58:30;1.50;;;1.40;;
22007;SDS011;11168;56.976;24.168;2022-09-03T10:03:30;1.75;;;0.95;;
22007;SDS011;11168;56.976;24.168;2022-09-03T10:06:05;1.92;;;1.00;;
22007;SDS011;11168;56.976;24.168;2022-09-03T10:08:52;1.00;;;0.73;;
22007;SDS011;11168;56.976;24.168;2022-09-03T10:11:20;1.70;;;0.60;;
22007;SDS011;11168;56.976;24.168;2022-09-03T10:13:50;1.67;;;0.70;;
22007;SDS011;11168;56.976;24.168;2022-09-03T10:16:20;1.60;;;0.73;;
22007;SDS011;11168;56.976;24.168;2022-09-03T10:21:34;2.05;;;0.40;;
22007;SDS011;11168;56.976;24.168;2022-09-03T10:26:32;0.45;;;0.40;;
22007;SDS011;11168;56.976;24.168;2022-09-03T10:29:01;1.40;;;0.60;;
22007;SDS011;11168;56.976;24.168;2022-09-03T10:34:34;0.80;;;0.60;;
22007;SDS011;11168;56.976;24.168;2022-09-03T10:39:46;1.60;;;0.50;;
22007;SDS011;11168;56.976;24.168;2022-09-03T10:44:50;0.75;;;0.60;;
22007;SDS011;11168;56.976;24.168;2022-09-03T10:50:14;5.97;;;2.22;;
22007;SDS011;11168;56.976;24.168;2022-09-03T10:55:18;0.43;;;0.40;;
22007;SDS011;11168;56.976;24.168;2022-09-03T10:57:50;1.52;;;0.90;;
22007;SDS011;11168;56.976;24.168;2022-09-03T11:00:19;2.03;;;1.17;;
22007;SDS011;11168;56.976;24.168;2022-09-03T11:07:55;0.13;;;0.10;;
22007;SDS011;11168;56.976;24.168;2022-09-03T11:10:27;0.40;;;0.20;;
22007;SDS011;11168;56.976;24.168;2022-09-03T11:15:29;2.72;;;0.30;;
22007;SDS011;11168;56.976;24.168;2022-09-03T11:18:00;2.08;;;0.30;;
22007;SDS011;11168;56.976;24.168;2022-09-03T11:20:28;0.77;;;0.38;;
22007;SDS011;11168;56.976;24.168;2022-09-03T11:22:56;0.50;;;0.25;;
22007;SDS011;11168;56.976;24.168;2022-09-03T11:25:33;0.30;;;0.20;;
22007;SDS011;11168;56.976;24.168;2022-09-03T11:33:08;1.38;;;0.20;;
22007;SDS011;11168;56.976;24.168;2022-09-03T11:35:40;0.80;;;0.28;;
22007;SDS011;11168;56.976;24.168;2022-09-03T11:43:32;0.68;;;0.10;;
22007;SDS011;11168;56.976;24.168;2022-09-03T11:50:54;1.67;;;0.35;;
22007;SDS011;11168;56.976;24.168;2022-09-03T11:53:23;0.57;;;0.35;;
22007;SDS011;11168;56.976;24.168;2022-09-03T11:56:00;2.80;;;0.57;;
22007;SDS011;11168;56.976;24.168;2022-09-03T11:58:39;12.60;;;1.10;;
22007;SDS011;11168;56.976;24.168;2022-09-03T12:01:12;0.30;;;0.30;;
22007;SDS011;11168;56.976;24.168;2022-09-03T12:18:50;1.90;;;0.60;;
22007;SDS011;11168;56.976;24.168;2022-09-03T12:21:20;0.40;;;0.20;;
22007;SDS011;11168;56.976;24.168;2022-09-03T12:23:51;1.38;;;0.25;;
22007;SDS011;11168;56.976;24.168;2022-09-03T12:26:24;0.68;;;0.20;;
22007;SDS011;11168;56.976;24.168;2022-09-03T12:28:56;0.55;;;0.40;;
22007;SDS011;11168;56.976;24.168;2022-09-03T12:31:29;0.60;;;0.30;;
22007;SDS011;11168;56.976;24.168;2022-09-03T12:34:01;2.50;;;0.20;;
22007;SDS011;11168;56.976;24.168;2022-09-03T12:36:38;1.15;;;0.25;;
22007;SDS011;11168;56.976;24.168;2022-09-03T12:39:07;1.48;;;0.35;;
22007;SDS011;11168;56.976;24.168;2022-09-03T12:41:38;1.15;;;0.80;;
22007;SDS011;11168;56.976;24.168;2022-09-03T12:44:13;1.30;;;0.85;;
22007;SDS011;11168;56.976;24.168;2022-09-03T12:46:40;1.60;;;1.27;;
22007;SDS011;11168;56.976;24.168;2022-09-03T12:49:13;2.22;;;1.77;;
22007;SDS011;11168;56.976;24.168;2022-09-03T12:52:32;2.20;;;0.85;;
22007;SDS011;11168;56.976;24.168;2022-09-03T12:54:55;0.63;;;0.38;;
22007;SDS011;11168;56.976;24.168;2022-09-03T12:57:26;1.38;;;0.40;;
22007;SDS011;11168;56.976;24.168;2022-09-03T12:59:57;0.57;;;0.30;;
22007;SDS011;11168;56.976;24.168;2022-09-03T13:02:27;1.05;;;0.30;;
22007;SDS011;11168;56.976;24.168;2022-09-03T13:04:56;0.75;;;0.15;;
22007;SDS011;11168;56.976;24.168;2022-09-03T13:07:32;0.32;;;0.20;;
22007;SDS011;11168;56.976;24.168;2022-09-03T13:10:02;0.77;;;0.50;;
22007;SDS011;11168;56.976;24.168;2022-09-03T13:12:32;0.85;;;0.55;;
22007;SDS011;11168;56.976;24.168;2022-09-03T13:15:07;0.35;;;0.30;;
22007;SDS011;11168;56.976;24.168;2022-09-03T13:25:22;2.33;;;0.47;;
22007;SDS011;11168;56.976;24.168;2022-09-03T13:30:47;3.17;;;0.55;;
22007;SDS011;11168;56.976;24.168;2022-09-03T13:33:22;1.08;;;0.63;;
22007;SDS011;11168;56.976;24.168;2022-09-03T13:36:13;0.30;;;0.30;;
22007;SDS011;11168;56.976;24.168;2022-09-03T13:38:44;2.08;;;0.50;;
22007;SDS011;11168;56.976;24.168;2022-09-03T13:41:17;1.25;;;0.20;;
22007;SDS011;11168;56.976;24.168;2022-09-03T13:43:51;0.68;;;0.30;;
22007;SDS011;11168;56.976;24.168;2022-09-03T13:46:22;0.43;;;0.28;;
22007;SDS011;11168;56.976;24.168;2022-09-03T13:48:50;1.50;;;0.45;;
22007;SDS011;11168;56.976;24.168;2022-09-03T13:54:18;2.20;;;0.40;;
22007;SDS011;11168;56.976;24.168;2022-09-03T13:57:22;0.68;;;0.40;;
22007;SDS011;11168;56.976;24.168;2022-09-03T14:00:05;1.20;;;0.30;;
22007;SDS011;11168;56.976;24.168;2022-09-03T14:05:12;2.45;;;0.30;;
22007;SDS011;11168;56.976;24.168;2022-09-03T14:10:38;0.82;;;0.38;;
22007;SDS011;11168;56.976;24.168;2022-09-03T14:13:13;4.00;;;0.28;;
22007;SDS011;11168;56.976;24.168;2022-09-03T14:20:57;1.48;;;0.35;;
22007;SDS011;11168;56.976;24.168;2022-09-03T14:23:39;1.00;;;0.28;;
22007;SDS011;11168;56.976;24.168;2022-09-03T14:26:14;1.08;;;0.20;;
22007;SDS011;11168;56.976;24.168;2022-09-03T14:28:47;0.50;;;0.30;;
22007;SDS011;11168;56.976;24.168;2022-09-03T14:42:02;4.65;;;0.70;;
22007;SDS011;11168;56.976;24.168;2022-09-03T14:44:40;1.10;;;0.68;;
22007;SDS011;11168;56.976;24.168;2022-09-03T14:50:04;1.77;;;0.40;;
22007;SDS011;11168;56.976;24.168;2022-09-03T14:55:27;1.23;;;0.60;;
22007;SDS011;11168;56.976;24.168;2022-09-03T15:00:50;1.90;;;0.50;;
22007;SDS011;11168;56.976;24.168;2022-09-03T15:06:03;0.93;;;0.40;;
22007;SDS011;11168;56.976;24.168;2022-09-03T15:11:00;0.40;;;0.40;;
22007;SDS011;11168;56.976;24.168;2022-09-03T15:24:12;1.63;;;0.95;;
22007;SDS011;11168;56.976;24.168;2022-09-03T15:26:55;1.05;;;0.40;;
22007;SDS011;11168;56.976;24.168;2022-09-03T15:32:50;0.82;;;0.50;;
22007;SDS011;11168;56.976;24.168;2022-09-03T15:38:18;1.30;;;0.38;;
22007;SDS011;11168;56.976;24.168;2022-09-03T15:43:21;1.48;;;0.50;;
22007;SDS011;11168;56.976;24.168;2022-09-03T15:46:04;1.02;;;0.60;;
22007;SDS011;11168;56.976;24.168;2022-09-03T15:51:17;1.08;;;0.60;;
22007;SDS011;11168;56.976;24.168;2022-09-03T15:53:49;6.55;;;3.42;;
22007;SDS011;11168;56.976;24.168;2022-09-03T15:56:23;9.73;;;4.78;;
22007;SDS011;11168;56.976;24.168;2022-09-03T15:58:56;3.83;;;2.03;;
22007;SDS011;11168;56.976;24.168;2022-09-03T16:01:28;3.30;;;1.10;;
22007;SDS011;11168;56.976;24.168;2022-09-03T16:12:56;3.17;;;0.70;;
22007;SDS011;11168;56.976;24.168;2022-09-03T16:17:54;1.80;;;1.30;;
22007;SDS011;11168;56.976;24.168;2022-09-03T16:20:26;2.50;;;1.20;;
22007;SDS011;11168;56.976;24.168;2022-09-03T16:25:33;0.65;;;0.65;;
22007;SDS011;11168;56.976;24.168;2022-09-03T16:28:05;1.85;;;0.57;;
22007;SDS011;11168;56.976;24.168;2022-09-03T16:41:10;1.77;;;0.82;;
22007;SDS011;11168;56.976;24.168;2022-09-03T16:46:21;1.55;;;0.60;;
22007;SDS011;11168;56.976;24.168;2022-09-03T16:49:24;0.85;;;0.68;;
22007;SDS011;11168;56.976;24.168;2022-09-03T16:57:06;1.23;;;0.68;;
22007;SDS011;11168;56.976;24.168;2022-09-03T17:10:52;1.40;;;0.90;;
22007;SDS011;11168;56.976;24.168;2022-09-03T17:18:50;3.47;;;1.20;;
22007;SDS011;11168;56.976;24.168;2022-09-03T17:26:32;1.70;;;1.20;;
22007;SDS011;11168;56.976;24.168;2022-09-03T17:29:17;1.85;;;1.10;;
22007;SDS011;11168;56.976;24.168;2022-09-03T17:37:07;2.50;;;0.80;;
22007;SDS011;11168;56.976;24.168;2022-09-03T17:39:58;3.40;;;1.45;;
22007;SDS011;11168;56.976;24.168;2022-09-03T17:42:29;2.78;;;1.88;;
22007;SDS011;11168;56.976;24.168;2022-09-03T17:47:41;1.70;;;1.60;;
22007;SDS011;11168;56.976;24.168;2022-09-03T17:52:46;3.08;;;1.63;;
22007;SDS011;11168;56.976;24.168;2022-09-03T17:55:35;4.43;;;2.20;;
22007;SDS011;11168;56.976;24.168;2022-09-03T17:58:08;3.20;;;1.88;;
22007;SDS011;11168;56.976;24.168;2022-09-03T18:03:18;5.03;;;1.85;;
22007;SDS011;11168;56.976;24.168;2022-09-03T18:05:56;4.03;;;1.73;;
22007;SDS011;11168;56.976;24.168;2022-09-03T18:11:29;2.63;;;1.63;;
22007;SDS011;11168;56.976;24.168;2022-09-03T18:16:27;3.33;;;1.70;;
22007;SDS011;11168;56.976;24.168;2022-09-03T18:19:05;2.28;;;1.52;;
22007;SDS011;11168;56.976;24.168;2022-09-03T18:21:44;3.80;;;2.35;;
22007;SDS011;11168;56.976;24.168;2022-09-03T18:24:48;3.88;;;1.98;;
22007;SDS011;11168;56.976;24.168;2022-09-03T18:27:56;5.38;;;2.20;;
22007;SDS011;11168;56.976;24.168;2022-09-03T18:30:43;3.75;;;2.92;;
22007;SDS011;11168;56.976;24.168;2022-09-03T18:33:29;5.43;;;2.70;;
22007;SDS011;11168;56.976;24.168;2022-09-03T18:36:15;7.68;;;3.10;;
22007;SDS011;11168;56.976;24.168;2022-09-03T18:42:02;4.93;;;2.80;;
22007;SDS011;11168;56.976;24.168;2022-09-03T18:44:55;3.53;;;2.67;;
22007;SDS011;11168;56.976;24.168;2022-09-03T18:48:33;7.05;;;3.70;;
22007;SDS011;11168;56.976;24.168;2022-09-03T18:56:52;8.32;;;5.30;;
22007;SDS011;11168;56.976;24.168;2022-09-03T18:59:51;9.15;;;5.45;;
22007;SDS011;11168;56.976;24.168;2022-09-03T19:05:59;8.80;;;4.35;;
22007;SDS011;11168;56.976;24.168;2022-09-03T19:08:51;5.32;;;4.05;;
22007;SDS011;11168;56.976;24.168;2022-09-03T19:11:44;7.95;;;4.90;;
22007;SDS011;11168;56.976;24.168;2022-09-03T19:14:47;6.40;;;3.70;;
22007;SDS011;11168;56.976;24.168;2022-09-03T19:20:28;6.90;;;4.13;;
22007;SDS011;11168;56.976;24.168;2022-09-03T19:23:15;5.13;;;3.58;;
22007;SDS011;11168;56.976;24.168;2022-09-03T19:26:26;7.63;;;4.35;;
22007;SDS011;11168;56.976;24.168;2022-09-03T19:29:11;7.72;;;3.97;;
22007;SDS011;11168;56.976;24.168;2022-09-03T19:31:59;6.55;;;4.40;;
22007;SDS011;11168;56.976;24.168;2022-09-03T19:37:41;4.38;;;2.97;;
22007;SDS011;11168;56.976;24.168;2022-09-03T19:43:28;5.45;;;2.75;;
22007;SDS011;11168;56.976;24.168;2022-09-03T19:55:31;9.32;;;4.40;;
22007;SDS011;11168;56.976;24.168;2022-09-03T19:58:21;8.63;;;5.47;;
22007;SDS011;11168;56.976;24.168;2022-09-03T20:01:10;8.95;;;5.20;;
22007;SDS011;11168;56.976;24.168;2022-09-03T20:03:59;14.38;;;7.05;;
22007;SDS011;11168;56.976;24.168;2022-09-03T20:06:47;13.57;;;6.93;;
22007;SDS011;11168;56.976;24.168;2022-09-03T20:09:34;18.70;;;8.38;;
22007;SDS011;11168;56.976;24.168;2022-09-03T20:12:21;19.25;;;8.15;;
22007;SDS011;11168;56.976;24.168;2022-09-03T20:14:49;15.95;;;8.82;;
22007;SDS011;11168;56.976;24.168;2022-09-03T20:17:22;18.33;;;8.80;;
22007;SDS011;11168;56.976;24.168;2022-09-03T20:22:40;15.15;;;7.65;;
22007;SDS011;11168;56.976;24.168;2022-09-03T20:30:20;13.45;;;6.07;;
22007;SDS011;11168;56.976;24.168;2022-09-03T20:40:45;7.63;;;4.65;;